Time;durP1;ratioP1;P1;durP2;ratioP2;P2;SDS_P1;SDS_P2;PMS_P1;PMS_P2;Temp;Humidity;BMP_temperature;BMP_pressure;BME280_temperature;BME280_humidity;BME280_pressure;Samples;Min_cycle;Max_cycle;Signal;HPM_P1;HPM_P2
2023/07/25 00:00:34;;;;;;;5.15;2.20;;;18.20;99.90;;;;;;5092970;28;20024;-62
2023/07/25 00:02:59;;;;;;;3.15;2.13;;;18.20;99.90;;;;;;5092270;28;20540;-62
2023/07/25 00:05:25;;;;;;;3.00;1.75;;;18.10;99.90;;;;;;5096004;28;20077;-62
2023/07/25 00:07:51;;;;;;;6.95;2.40;;;18.10;99.90;;;;;;5092496;28;20039;-62
2023/07/25 00:10:18;;;;;;;2.78;1.85;;;18.10;99.90;;;;;;5095878;28;20038;-62
2023/07/25 00:12:44;;;;;;;2.45;1.88;;;18.00;99.90;;;;;;5093174;28;20020;-62
2023/07/25 00:15:10;;;;;;;3.60;2.03;;;18.00;99.90;;;;;;5095906;28;20040;-62
2023/07/25 00:17:36;;;;;;;2.20;2.00;;;18.00;99.90;;;;;;5092967;28;20032;-62
2023/07/25 00:20:02;;;;;;;2.22;2.00;;;17.90;99.90;;;;;;5093204;28;20069;-62
2023/07/25 00:22:28;;;;;;;3.53;1.88;;;17.90;99.90;;;;;;5095877;28;20032;-62
2023/07/25 00:24:53;;;;;;;2.33;1.80;;;17.90;99.90;;;;;;5093010;28;20496;-62
2023/07/25 00:27:19;;;;;;;4.00;2.30;;;17.90;99.90;;;;;;5095956;28;20048;-62
2023/07/25 00:29:47;;;;;;;5.75;2.38;;;17.90;99.90;;;;;;5092160;28;20036;-62
2023/07/25 00:32:13;;;;;;;3.05;2.20;;;17.90;99.90;;;;;;5077470;28;20411;-62
2023/07/25 00:34:38;;;;;;;2.80;2.28;;;17.90;99.90;;;;;;5092314;28;20034;-62
2023/07/25 00:37:05;;;;;;;7.22;2.42;;;17.90;99.90;;;;;;5096018;28;20045;-62
2023/07/25 00:39:30;;;;;;;5.18;2.40;;;17.90;99.90;;;;;;5073910;28;20028;-62
2023/07/25 00:41:56;;;;;;;3.90;2.47;;;17.90;99.90;;;;;;5073781;28;20062;-62
2023/07/25 00:44:22;;;;;;;4.28;2.67;;;17.80;99.90;;;;;;5095529;28;20075;-62
2023/07/25 00:46:48;;;;;;;3.22;2.33;;;17.80;99.90;;;;;;5072069;28;20051;-62
2023/07/25 00:49:14;;;;;;;4.60;2.75;;;17.80;99.90;;;;;;5077750;28;20065;-62
2023/07/25 00:51:40;;;;;;;4.32;2.35;;;17.80;99.90;;;;;;5094659;28;20139;-62
2023/07/25 00:54:06;;;;;;;3.47;2.45;;;17.80;99.90;;;;;;5080749;28;20034;-62
2023/07/25 00:56:31;;;;;;;4.75;2.20;;;17.70;99.90;;;;;;5095240;28;20647;-62
2023/07/25 00:58:57;;;;;;;3.38;2.33;;;17.70;99.90;;;;;;5077130;28;20024;-62
2023/07/25 01:01:24;;;;;;;4.85;2.63;;;17.70;99.90;;;;;;5099181;28;20479;-62
2023/07/25 01:03:53;;;;;;;2.80;2.53;;;17.60;99.90;;;;;;5076941;28;20043;-62
2023/07/25 01:06:19;;;;;;;3.70;2.85;;;17.60;99.90;;;;;;5075762;28;20059;-62
2023/07/25 01:08:51;;;;;;;4.60;3.00;;;17.60;99.90;;;;;;5096271;28;20088;-64
2023/07/25 01:11:18;;;;;;;6.38;2.97;;;17.60;99.90;;;;;;5080326;28;20035;-63
2023/07/25 01:13:44;;;;;;;2.55;2.35;;;17.50;99.90;;;;;;5097153;28;20039;-63
2023/07/25 01:16:16;;;;;;;5.45;2.70;;;17.50;99.90;;;;;;5100452;28;20052;-62
2023/07/25 01:18:42;;;;;;;3.35;2.83;;;17.50;99.90;;;;;;5079956;28;20562;-63
2023/07/25 01:21:08;;;;;;;5.05;2.83;;;17.50;99.90;;;;;;5080050;28;20032;-63
2023/07/25 01:23:36;;;;;;;3.63;2.88;;;17.50;99.90;;;;;;5079411;28;20032;-62
2023/07/25 01:26:02;;;;;;;4.00;2.88;;;17.50;99.90;;;;;;5080206;28;20035;-63
2023/07/25 01:28:30;;;;;;;4.15;3.38;;;17.50;99.90;;;;;;5079314;28;20570;-63
2023/07/25 01:30:59;;;;;;;5.05;3.70;;;17.50;99.90;;;;;;5096183;28;20128;-63
2023/07/25 01:33:25;;;;;;;4.18;2.67;;;17.60;99.90;;;;;;5080866;28;20032;-63
2023/07/25 01:35:51;;;;;;;4.20;3.55;;;17.60;99.90;;;;;;5096889;28;20074;-63
2023/07/25 01:38:17;;;;;;;3.53;3.03;;;17.60;99.90;;;;;;5099677;28;20076;-63
2023/07/25 01:40:42;;;;;;;7.13;3.50;;;17.60;99.90;;;;;;5078387;28;20024;-63
2023/07/25 01:43:08;;;;;;;8.07;3.95;;;17.70;99.90;;;;;;5077945;28;20023;-63
2023/07/25 01:45:35;;;;;;;4.65;3.83;;;17.70;99.90;;;;;;5080744;28;20028;-63
2023/07/25 01:48:01;;;;;;;3.63;3.30;;;17.70;99.90;;;;;;5099521;28;20031;-63
2023/07/25 01:50:27;;;;;;;5.72;4.10;;;17.80;99.90;;;;;;5077689;28;20023;-63
2023/07/25 01:52:53;;;;;;;4.65;3.50;;;17.70;99.90;;;;;;5096350;28;20047;-63
2023/07/25 01:55:19;;;;;;;6.13;4.50;;;17.80;99.90;;;;;;5098460;28;20058;-63
2023/07/25 01:57:45;;;;;;;4.20;3.70;;;17.90;99.90;;;;;;5076426;28;20047;-63
2023/07/25 02:00:11;;;;;;;5.05;4.03;;;17.90;99.90;;;;;;5080799;28;20032;-63
2023/07/25 02:02:40;;;;;;;6.68;4.85;;;17.90;99.90;;;;;;5095437;28;20036;-63
2023/07/25 02:05:06;;;;;;;5.85;4.65;;;17.90;99.90;;;;;;5081043;28;20034;-63
2023/07/25 02:07:32;;;;;;;7.38;5.00;;;18.00;99.90;;;;;;5095357;28;20763;-63
2023/07/25 02:09:58;;;;;;;5.35;4.13;;;18.00;99.90;;;;;;5076910;28;20036;-63
2023/07/25 02:12:25;;;;;;;5.38;3.67;;;18.00;99.90;;;;;;5098901;28;20043;-63
2023/07/25 02:14:51;;;;;;;6.57;4.38;;;18.00;99.90;;;;;;5063355;28;20031;-63
2023/07/25 02:17:19;;;;;;;5.95;3.92;;;18.00;99.90;;;;;;5064231;28;20035;-63
2023/07/25 02:19:45;;;;;;;5.47;3.92;;;18.00;99.90;;;;;;5077230;28;20085;-63
2023/07/25 02:22:12;;;;;;;5.50;4.25;;;18.00;99.90;;;;;;5080202;28;20035;-63
2023/07/25 02:24:38;;;;;;;8.93;4.57;;;18.00;99.90;;;;;;5095273;28;20100;-63
2023/07/25 02:27:04;;;;;;;9.32;3.90;;;18.00;99.90;;;;;;5095944;28;20028;-63
2023/07/25 02:29:30;;;;;;;6.30;4.10;;;18.00;99.90;;;;;;5080969;28;20728;-63
2023/07/25 02:31:56;;;;;;;5.22;3.90;;;18.00;99.90;;;;;;5095755;28;20045;-63
2023/07/25 02:34:22;;;;;;;10.00;3.95;;;18.00;99.90;;;;;;5098958;28;20732;-63
2023/07/25 02:36:47;;;;;;;9.00;3.85;;;18.00;99.90;;;;;;5095728;28;20856;-63
2023/07/25 02:39:13;;;;;;;7.15;3.65;;;18.00;99.90;;;;;;5098407;28;20593;-63
2023/07/25 02:41:39;;;;;;;6.38;3.90;;;18.00;99.90;;;;;;5094861;28;20059;-63
2023/07/25 02:44:05;;;;;;;9.20;3.88;;;17.90;99.90;;;;;;5095073;28;20202;-63
2023/07/25 02:46:30;;;;;;;6.28;3.97;;;17.90;99.90;;;;;;5079960;28;20031;-63
2023/07/25 02:48:56;;;;;;;6.20;3.78;;;18.00;99.90;;;;;;5094956;28;20040;-63
2023/07/25 02:51:22;;;;;;;5.90;3.45;;;17.90;99.90;;;;;;5079842;28;20031;-63
2023/07/25 02:53:48;;;;;;;5.35;3.67;;;17.90;99.90;;;;;;5076318;28;20067;-63
2023/07/25 02:56:13;;;;;;;7.50;3.90;;;17.90;99.90;;;;;;5079636;28;20447;-64
2023/07/25 02:58:39;;;;;;;4.57;3.15;;;17.90;99.90;;;;;;5096671;28;20035;-63
2023/07/25 03:01:05;;;;;;;7.93;3.80;;;17.80;99.90;;;;;;5094504;28;20035;-63
2023/07/25 03:03:31;;;;;;;9.85;4.35;;;17.80;99.90;;;;;;5079451;28;20051;-63
2023/07/25 03:05:57;;;;;;;6.93;3.40;;;17.70;99.90;;;;;;5076054;28;20078;-63
2023/07/25 03:08:23;;;;;;;6.97;3.70;;;17.60;99.90;;;;;;5098070;28;20046;-63
2023/07/25 03:10:49;;;;;;;5.35;3.42;;;17.50;99.90;;;;;;5076119;28;20059;-63
2023/07/25 03:13:15;;;;;;;5.55;3.67;;;17.50;99.90;;;;;;5079231;28;20063;-63
2023/07/25 03:15:41;;;;;;;5.10;3.35;;;17.40;99.90;;;;;;5094733;28;20028;-63
2023/07/25 03:18:07;;;;;;;4.80;3.50;;;17.40;99.90;;;;;;5072664;28;20050;-63
2023/07/25 03:20:33;;;;;;;4.53;3.80;;;17.40;99.90;;;;;;5078910;28;20034;-63
2023/07/25 03:22:59;;;;;;;5.70;4.07;;;17.40;99.90;;;;;;5092832;28;20024;-63
2023/07/25 03:25:24;;;;;;;5.75;3.22;;;17.40;99.90;;;;;;5097210;28;20517;-63
2023/07/25 03:27:51;;;;;;;7.25;3.83;;;17.40;99.90;;;;;;5094491;28;20039;-63
2023/07/25 03:30:18;;;;;;;6.43;3.80;;;17.30;99.90;;;;;;5078943;28;20031;-63
2023/07/25 03:32:43;;;;;;;3.40;2.95;;;17.30;99.90;;;;;;5093768;28;20119;-63
2023/07/25 03:35:09;;;;;;;8.13;4.22;;;17.20;99.90;;;;;;5093875;28;20657;-63
2023/07/25 03:37:35;;;;;;;5.55;3.50;;;17.20;99.90;;;;;;5078381;28;20077;-63
2023/07/25 03:40:01;;;;;;;5.07;3.63;;;17.20;99.90;;;;;;5094106;28;20488;-63
2023/07/25 03:42:27;;;;;;;4.97;3.22;;;17.20;99.90;;;;;;5096829;28;20053;-63
2023/07/25 03:44:52;;;;;;;6.13;2.78;;;17.20;99.90;;;;;;5091169;28;20115;-63
2023/07/25 03:47:18;;;;;;;5.82;3.50;;;17.10;99.90;;;;;;5097055;28;20035;-63
2023/07/25 03:49:45;;;;;;;6.20;3.53;;;17.10;99.90;;;;;;5093707;28;20028;-63
2023/07/25 03:52:11;;;;;;;6.60;3.25;;;17.10;99.90;;;;;;5096538;28;20100;-63
2023/07/25 03:54:37;;;;;;;4.80;3.08;;;17.10;99.90;;;;;;5093827;28;20055;-63
2023/07/25 03:57:03;;;;;;;4.45;3.22;;;17.10;99.90;;;;;;5091085;28;20036;-64
2023/07/25 03:59:29;;;;;;;5.93;3.72;;;17.10;99.90;;;;;;5078701;28;20035;-63
2023/07/25 04:01:55;;;;;;;6.65;3.63;;;17.10;99.90;;;;;;5094278;28;20036;-63
2023/07/25 04:04:21;;;;;;;5.15;3.38;;;17.10;99.90;;;;;;5096689;28;20039;-63
2023/07/25 04:06:47;;;;;;;5.53;3.38;;;17.10;99.90;;;;;;5075502;28;20040;-63
2023/07/25 04:09:13;;;;;;;5.63;2.70;;;17.10;99.90;;;;;;5096397;28;20039;-63
2023/07/25 04:11:39;;;;;;;4.35;3.38;;;17.10;99.90;;;;;;5074744;28;20031;-63
2023/07/25 04:14:04;;;;;;;3.97;3.00;;;17.10;99.90;;;;;;5075411;28;20028;-63
2023/07/25 04:16:30;;;;;;;5.45;3.13;;;17.10;99.90;;;;;;5078116;28;20027;-63
2023/07/25 04:18:56;;;;;;;4.40;2.92;;;17.10;99.90;;;;;;5093956;28;20020;-63
2023/07/25 04:21:22;;;;;;;7.47;3.40;;;17.00;99.90;;;;;;5096025;28;20539;-63
2023/07/25 04:23:47;;;;;;;3.53;3.08;;;17.00;99.90;;;;;;5093502;28;20043;-63
2023/07/25 04:26:13;;;;;;;3.92;2.80;;;17.00;99.90;;;;;;5095600;28;20042;-63
2023/07/25 04:28:39;;;;;;;5.80;3.13;;;17.00;99.90;;;;;;5074594;28;20035;-63
2023/07/25 04:31:05;;;;;;;7.25;3.80;;;17.00;99.90;;;;;;5093307;28;20027;-63
2023/07/25 04:33:30;;;;;;;5.53;2.72;;;17.00;99.90;;;;;;5096295;28;20132;-63
2023/07/25 04:35:56;;;;;;;7.30;2.90;;;17.00;99.90;;;;;;5093362;28;20036;-63
2023/07/25 04:38:22;;;;;;;5.35;3.25;;;17.00;99.90;;;;;;5096474;28;20089;-63
2023/07/25 04:40:48;;;;;;;3.53;3.13;;;17.00;99.90;;;;;;5093485;28;20128;-63
2023/07/25 04:43:13;;;;;;;3.58;2.65;;;17.10;99.90;;;;;;5078000;28;20032;-63
2023/07/25 04:45:39;;;;;;;5.07;2.90;;;17.10;99.90;;;;;;5093368;28;20036;-63
2023/07/25 04:48:05;;;;;;;3.83;3.03;;;17.20;99.90;;;;;;5093527;28;20038;-63
2023/07/25 04:50:31;;;;;;;6.95;3.63;;;17.30;99.90;;;;;;5096194;28;20520;-63
2023/07/25 04:52:57;;;;;;;5.72;3.33;;;17.40;99.90;;;;;;5092880;28;20113;-63
2023/07/25 04:55:23;;;;;;;7.72;3.20;;;17.40;99.90;;;;;;5077989;28;20047;-63
2023/07/25 04:57:50;;;;;;;8.13;3.30;;;17.60;99.90;;;;;;5093163;28;20032;-63
2023/07/25 05:00:16;;;;;;;4.10;2.75;;;17.60;99.90;;;;;;5092444;28;20024;-63
2023/07/25 05:02:42;;;;;;;3.53;2.60;;;17.70;99.90;;;;;;5095131;28;20550;-63
2023/07/25 05:05:08;;;;;;;4.75;2.90;;;17.70;99.90;;;;;;5093261;28;20036;-63
2023/07/25 05:07:34;;;;;;;5.50;2.90;;;17.90;99.90;;;;;;5095991;28;20558;-63
2023/07/25 05:10:00;;;;;;;5.18;2.90;;;17.90;99.90;;;;;;5090889;28;20031;-63
2023/07/25 05:12:25;;;;;;;8.93;3.50;;;18.00;99.90;;;;;;5095655;28;20044;-63
2023/07/25 05:14:51;;;;;;;7.60;2.97;;;18.10;99.90;;;;;;5093077;28;20097;-63
2023/07/25 05:17:17;;;;;;;3.22;2.42;;;18.10;99.90;;;;;;5095831;28;20035;-63
2023/07/25 05:19:43;;;;;;;4.85;2.85;;;18.10;99.90;;;;;;5092902;28;20032;-63
2023/07/25 05:22:08;;;;;;;6.13;2.63;;;18.00;99.90;;;;;;5092222;28;20036;-63
2023/07/25 05:24:35;;;;;;;4.93;3.03;;;18.00;99.90;;;;;;5096421;28;20038;-62
2023/07/25 05:27:01;;;;;;;5.85;2.88;;;18.00;99.90;;;;;;5093919;28;20666;-63
2023/07/25 05:29:27;;;;;;;3.28;2.30;;;18.00;99.90;;;;;;5096062;28;20039;-63
2023/07/25 05:31:52;;;;;;;6.07;2.53;;;18.00;99.90;;;;;;5093028;28;20024;-63
2023/07/25 05:34:18;;;;;;;5.95;2.72;;;18.00;99.90;;;;;;5095736;28;20043;-63
2023/07/25 05:36:44;;;;;;;4.30;2.60;;;18.10;99.90;;;;;;5076180;28;20043;-63
2023/07/25 05:39:10;;;;;;;6.18;2.40;;;18.00;99.90;;;;;;5096258;28;20201;-63
2023/07/25 05:41:37;;;;;;;6.70;2.53;;;18.10;99.90;;;;;;5099351;28;20126;-63
2023/07/25 05:44:04;;;;;;;7.18;2.78;;;18.10;99.90;;;;;;5093634;28;20511;-63
2023/07/25 05:46:29;;;;;;;3.90;2.33;;;18.10;99.90;;;;;;5096964;28;20036;-63
2023/07/25 05:48:55;;;;;;;4.00;2.50;;;18.10;99.90;;;;;;5097536;28;20867;-63
2023/07/25 05:51:21;;;;;;;5.45;2.35;;;18.20;99.90;;;;;;5098989;28;20032;-63
2023/07/25 05:53:47;;;;;;;4.22;2.05;;;18.20;99.90;;;;;;5096160;28;20032;-62
2023/07/25 05:56:13;;;;;;;4.03;1.90;;;18.20;99.90;;;;;;5099011;28;20372;-63
2023/07/25 05:58:40;;;;;;;6.60;2.20;;;18.30;99.90;;;;;;5077557;28;20034;-63
2023/07/25 06:01:06;;;;;;;4.05;1.80;;;18.30;99.90;;;;;;5096745;28;20384;-63
2023/07/25 06:03:32;;;;;;;3.13;1.80;;;18.30;99.90;;;;;;5098712;28;20046;-63
2023/07/25 06:05:57;;;;;;;2.78;1.83;;;18.40;99.90;;;;;;5096789;28;20040;-63
2023/07/25 06:08:23;;;;;;;9.55;2.40;;;18.40;99.90;;;;;;5098699;28;20043;-63
2023/07/25 06:10:49;;;;;;;4.38;2.15;;;18.40;99.90;;;;;;5096990;28;20036;-62
2023/07/25 06:13:15;;;;;;;4.18;1.90;;;18.40;99.90;;;;;;5098362;28;20036;-63
2023/07/25 06:15:40;;;;;;;4.47;1.88;;;18.50;99.90;;;;;;5095941;28;20031;-63
2023/07/25 06:18:06;;;;;;;4.20;1.92;;;18.60;99.90;;;;;;5096492;28;20032;-63
2023/07/25 06:20:32;;;;;;;5.72;3.00;;;18.60;99.90;;;;;;5098581;28;20055;-63
2023/07/25 06:23:02;;;;;;;6.28;2.55;;;18.70;99.90;;;;;;5095930;28;20036;-63
2023/07/25 06:25:28;;;;;;;5.10;2.22;;;18.70;99.90;;;;;;5097654;28;20537;-63
2023/07/25 06:27:54;;;;;;;6.15;2.17;;;18.80;99.90;;;;;;5096517;28;20035;-63
2023/07/25 06:30:20;;;;;;;8.82;2.70;;;18.80;99.90;;;;;;5097641;28;20078;-63
2023/07/25 06:32:46;;;;;;;8.73;2.03;;;18.90;99.90;;;;;;5095009;28;20155;-63
2023/07/25 06:35:12;;;;;;;6.32;2.20;;;19.00;99.90;;;;;;5078116;28;20134;-63
2023/07/25 06:37:38;;;;;;;3.13;1.80;;;19.00;99.90;;;;;;5079118;28;20040;-63
2023/07/25 06:40:05;;;;;;;5.70;2.03;;;19.10;99.90;;;;;;5096287;28;20036;-63
2023/07/25 06:42:31;;;;;;;6.18;2.10;;;19.10;99.90;;;;;;5078604;28;20073;-63
2023/07/25 06:44:58;;;;;;;5.85;2.05;;;19.00;99.90;;;;;;5078235;28;20032;-63
2023/07/25 06:47:24;;;;;;;5.93;2.25;;;19.10;99.90;;;;;;5078239;28;20556;-63
2023/07/25 06:49:51;;;;;;;2.90;1.90;;;19.10;99.90;;;;;;5079862;28;20146;-62
2023/07/25 06:52:16;;;;;;;3.05;1.50;;;19.10;99.90;;;;;;5096440;28;20036;-62
2023/07/25 06:54:43;;;;;;;3.70;2.10;;;19.10;99.90;;;;;;5096980;28;20027;-62
2023/07/25 06:57:09;;;;;;;5.75;2.53;;;19.20;99.90;;;;;;5094385;28;20028;-63
2023/07/25 06:59:35;;;;;;;3.58;2.20;;;19.20;99.90;;;;;;5096696;28;20028;-63
2023/07/25 07:02:01;;;;;;;6.82;2.08;;;19.30;99.90;;;;;;5094945;28;20028;-63
2023/07/25 07:04:27;;;;;;;6.85;2.40;;;19.30;99.90;;;;;;5094641;28;20061;-63
2023/07/25 07:06:53;;;;;;;4.18;1.63;;;19.40;99.90;;;;;;5095988;28;20035;-63
2023/07/25 07:09:18;;;;;;;3.08;1.60;;;19.40;99.90;;;;;;5094467;28;20044;-63
2023/07/25 07:11:44;;;;;;;6.45;2.22;;;19.40;99.90;;;;;;5095533;28;20039;-63
2023/07/25 07:14:10;;;;;;;5.82;1.80;;;19.50;99.90;;;;;;5088448;28;20032;-63
2023/07/25 07:16:36;;;;;;;4.28;2.17;;;19.40;99.90;;;;;;5096086;28;20512;-63
2023/07/25 07:19:01;;;;;;;3.83;1.33;;;19.50;99.90;;;;;;5095901;28;20855;-63
2023/07/25 07:21:27;;;;;;;2.25;1.60;;;19.50;99.90;;;;;;5094972;28;20125;-63
2023/07/25 07:23:53;;;;;;;5.30;1.52;;;19.50;99.90;;;;;;5079498;28;20031;-63
2023/07/25 07:26:19;;;;;;;4.22;1.95;;;19.60;99.90;;;;;;5075296;28;20032;-63
2023/07/25 07:28:45;;;;;;;6.07;1.80;;;19.70;99.90;;;;;;5095932;28;20032;-63
2023/07/25 07:31:12;;;;;;;4.07;1.60;;;19.90;99.90;;;;;;5095195;28;20047;-63
2023/07/25 07:33:38;;;;;;;4.60;1.90;;;20.00;99.90;;;;;;5095548;28;20451;-63
2023/07/25 07:36:05;;;;;;;3.45;1.60;;;20.10;99.90;;;;;;5096593;28;20039;-63
2023/07/25 07:38:31;;;;;;;3.92;1.38;;;20.30;99.90;;;;;;5093153;28;20038;-63
2023/07/25 07:40:56;;;;;;;6.80;2.10;;;20.40;99.90;;;;;;5095920;28;20036;-64
2023/07/25 07:43:22;;;;;;;9.75;1.80;;;20.60;99.90;;;;;;5092958;28;20098;-63
2023/07/25 07:45:48;;;;;;;7.90;1.77;;;20.70;99.90;;;;;;5094403;28;20032;-63
2023/07/25 07:48:14;;;;;;;6.82;1.90;;;20.70;99.90;;;;;;5095649;28;20032;-64
2023/07/25 07:50:41;;;;;;;4.13;1.50;;;20.70;99.90;;;;;;5095424;28;20372;-65
2023/07/25 07:53:07;;;;;;;5.80;1.65;;;20.80;99.90;;;;;;5095156;28;20036;-63
2023/07/25 07:55:33;;;;;;;2.40;1.58;;;20.70;99.90;;;;;;5091883;28;20035;-64
2023/07/25 07:58:00;;;;;;;7.50;1.60;;;20.70;99.90;;;;;;5095893;28;20028;-63
2023/07/25 08:00:26;;;;;;;4.13;1.80;;;20.60;99.90;;;;;;5093905;28;20028;-63
2023/07/25 08:02:51;;;;;;;5.95;1.58;;;20.50;99.90;;;;;;5092216;28;20039;-63
2023/07/25 08:05:18;;;;;;;4.65;1.73;;;20.40;99.90;;;;;;5095890;28;20040;-64
2023/07/25 08:07:44;;;;;;;5.53;1.85;;;20.30;99.90;;;;;;5093102;28;20616;-63
2023/07/25 08:10:10;;;;;;;3.22;1.63;;;20.30;99.90;;;;;;5095726;28;20053;-63
2023/07/25 08:12:36;;;;;;;6.28;1.55;;;20.30;99.90;;;;;;5093855;28;20183;-64
2023/07/25 08:15:02;;;;;;;3.88;2.05;;;20.40;99.90;;;;;;5095775;28;20024;-63
2023/07/25 08:17:28;;;;;;;4.53;1.83;;;20.60;99.90;;;;;;5094291;28;20042;-63
2023/07/25 08:19:54;;;;;;;3.58;1.70;;;20.70;99.90;;;;;;5093611;28;20036;-63
2023/07/25 08:22:20;;;;;;;9.43;2.40;;;20.80;99.90;;;;;;5095292;28;20147;-63
2023/07/25 08:24:46;;;;;;;8.18;2.45;;;20.90;99.90;;;;;;5091825;28;20105;-63
2023/07/25 08:27:12;;;;;;;2.53;1.70;;;20.90;99.90;;;;;;5095731;28;20035;-63
2023/07/25 08:29:43;;;;;;;2.97;1.90;;;21.00;99.90;;;;;;5093635;28;20105;-63
2023/07/25 08:32:09;;;;;;;7.28;1.90;;;21.00;99.90;;;;;;5096445;28;20461;-63
2023/07/25 08:34:36;;;;;;;4.35;1.70;;;21.20;99.40;;;;;;5092961;28;20078;-63
2023/07/25 08:37:03;;;;;;;4.80;1.73;;;21.30;99.30;;;;;;5074281;28;20092;-63
2023/07/25 08:39:28;;;;;;;2.72;1.63;;;21.30;98.60;;;;;;5096416;28;20435;-63
2023/07/25 08:41:55;;;;;;;4.82;1.90;;;21.50;99.00;;;;;;5092615;28;20039;-63
2023/07/25 08:44:21;;;;;;;2.40;1.35;;;21.60;98.50;;;;;;5096010;28;20118;-64
2023/07/25 08:46:50;;;;;;;3.55;1.60;;;21.70;97.90;;;;;;5092406;28;20484;-63
2023/07/25 08:49:20;;;;;;;4.53;1.50;;;21.70;97.20;;;;;;5091017;28;20043;-63
2023/07/25 08:51:49;;;;;;;2.35;1.60;;;21.70;97.10;;;;;;5093379;28;20031;-63
2023/07/25 08:54:21;;;;;;;5.10;1.67;;;21.60;98.10;;;;;;5089461;28;20031;-64
2023/07/25 08:56:47;;;;;;;5.05;1.63;;;21.50;96.80;;;;;;5094631;28;20035;-63
2023/07/25 08:59:14;;;;;;;4.03;1.35;;;21.30;97.30;;;;;;5095067;28;20445;-63
2023/07/25 09:01:41;;;;;;;2.90;1.60;;;21.30;97.30;;;;;;5093504;28;20043;-63
2023/07/25 09:04:09;;;;;;;4.10;1.60;;;21.30;97.60;;;;;;5094947;28;20449;-63
2023/07/25 09:06:35;;;;;;;4.85;1.70;;;21.30;98.10;;;;;;5092409;28;20038;-63
2023/07/25 09:09:00;;;;;;;2.35;1.70;;;21.30;96.90;;;;;;5094901;28;20432;-63
2023/07/25 09:11:26;;;;;;;5.88;1.80;;;21.20;96.50;;;;;;5094757;28;20084;-63
2023/07/25 09:13:53;;;;;;;4.97;1.60;;;21.10;97.30;;;;;;5096264;28;20024;-63
2023/07/25 09:16:19;;;;;;;3.15;1.50;;;21.10;96.50;;;;;;5098990;28;20105;-63
2023/07/25 09:18:44;;;;;;;4.13;1.60;;;21.20;96.70;;;;;;5097435;28;20167;-63
2023/07/25 09:21:12;;;;;;;4.57;1.50;;;21.30;97.10;;;;;;5099060;28;20035;-63
2023/07/25 09:23:38;;;;;;;3.08;1.70;;;21.50;95.50;;;;;;5097485;28;20150;-63
2023/07/25 09:26:06;;;;;;;6.97;1.80;;;21.60;96.00;;;;;;5098665;28;20036;-63
2023/07/25 09:28:33;;;;;;;2.63;1.25;;;21.70;94.40;;;;;;5096962;28;20067;-64
2023/07/25 09:31:04;;;;;;;4.40;1.30;;;21.80;95.00;;;;;;5095818;28;20460;-63
2023/07/25 09:33:30;;;;;;;5.20;1.25;;;21.80;95.10;;;;;;5090178;28;20032;-64
2023/07/25 09:35:57;;;;;;;3.28;1.58;;;21.90;95.10;;;;;;5094916;28;20028;-63
2023/07/25 09:38:23;;;;;;;4.95;1.35;;;21.90;94.70;;;;;;5097104;28;20028;-63
2023/07/25 09:40:49;;;;;;;3.30;1.50;;;21.90;93.90;;;;;;5096007;28;20043;-63
2023/07/25 09:43:25;;;;;;;4.97;1.58;;;22.00;94.40;;;;;;5099589;28;20028;-63
2023/07/25 09:45:52;;;;;;;4.78;1.63;;;22.10;94.00;;;;;;5097490;28;20575;-63
2023/07/25 09:48:18;;;;;;;5.50;1.67;;;22.20;93.50;;;;;;5096008;28;20066;-64
2023/07/25 09:50:44;;;;;;;4.93;1.55;;;22.20;94.20;;;;;;5097623;28;20081;-63
2023/07/25 09:53:12;;;;;;;3.90;1.70;;;22.30;94.00;;;;;;5097151;28;20036;-63
2023/07/25 09:55:37;;;;;;;3.33;1.58;;;22.30;93.00;;;;;;5093115;28;20440;-63
2023/07/25 09:58:04;;;;;;;2.55;1.25;;;22.20;92.10;;;;;;5097682;28;20020;-64
2023/07/25 10:00:31;;;;;;;4.60;1.73;;;22.10;92.90;;;;;;5097069;28;20096;-63
2023/07/25 10:02:58;;;;;;;5.43;1.60;;;22.00;92.80;;;;;;5097100;28;20032;-63
2023/07/25 10:05:26;;;;;;;2.78;1.25;;;22.00;92.10;;;;;;5095219;28;20032;-63
2023/07/25 10:07:57;;;;;;;4.72;1.58;;;21.90;92.80;;;;;;5096115;28;20086;-63
2023/07/25 10:10:24;;;;;;;5.53;1.70;;;21.90;91.90;;;;;;5099154;28;20448;-63
2023/07/25 10:12:50;;;;;;;4.00;1.50;;;21.80;93.10;;;;;;5095425;28;20031;-62
2023/07/25 10:15:17;;;;;;;4.28;1.48;;;21.80;91.80;;;;;;5098769;28;20138;-63
2023/07/25 10:17:43;;;;;;;2.97;1.58;;;21.70;91.40;;;;;;5095141;28;20031;-62
2023/07/25 10:20:18;;;;;;;3.53;1.35;;;21.60;92.20;;;;;;5099340;28;20037;-62
2023/07/25 10:22:44;;;;;;;2.08;1.33;;;21.60;93.20;;;;;;5091026;28;20032;-62
2023/07/25 10:25:26;;;;;;;4.93;1.60;;;21.70;94.80;;;;;;5096414;28;20571;-62
2023/07/25 10:28:02;;;;;;;2.55;1.60;;;21.70;95.30;;;;;;5096226;28;20411;-62
2023/07/25 10:30:31;;;;;;;5.38;1.73;;;21.80;95.10;;;;;;5093294;28;20027;-62
2023/07/25 10:33:02;;;;;;;3.95;2.00;;;21.90;94.60;;;;;;5095556;28;20036;-62
2023/07/25 10:35:53;;;;;;;4.13;1.95;;;22.00;93.90;;;;;;5093291;28;20058;-63
2023/07/25 10:38:33;;;;;;;5.22;1.90;;;22.10;93.40;;;;;;5098387;28;20031;-62
2023/07/25 10:41:00;;;;;;;2.85;1.65;;;22.20;93.50;;;;;;5096167;28;20121;-63
2023/07/25 10:43:28;;;;;;;5.55;2.00;;;22.20;92.70;;;;;;5097153;28;20042;-62
2023/07/25 10:45:56;;;;;;;4.95;2.05;;;22.30;92.30;;;;;;5094500;28;20036;-62
2023/07/25 10:48:42;;;;;;;2.83;1.42;;;22.30;90.50;;;;;;5089067;28;21035;-62
2023/07/25 10:51:08;;;;;;;4.53;1.45;;;22.30;90.00;;;;;;5095483;28;20122;-62
2023/07/25 10:53:34;;;;;;;4.85;1.70;;;22.40;90.00;;;;;;5095771;28;20143;-63
2023/07/25 10:56:03;;;;;;;6.13;1.88;;;22.50;90.00;;;;;;5078365;28;20028;-62
2023/07/25 10:58:32;;;;;;;2.47;1.30;;;22.60;90.10;;;;;;5093859;28;20073;-63
2023/07/25 11:00:59;;;;;;;4.05;1.50;;;22.70;90.20;;;;;;5089792;28;20047;-62
2023/07/25 11:03:33;;;;;;;2.38;1.63;;;22.80;90.40;;;;;;5093431;28;20035;-62
2023/07/25 11:06:08;;;;;;;5.82;1.50;;;22.90;90.20;;;;;;5095112;28;20039;-62
2023/07/25 11:08:41;;;;;;;5.72;1.80;;;23.10;84.70;;;;;;5077980;28;20126;-62
2023/07/25 11:11:09;;;;;;;4.80;1.73;;;23.10;88.30;;;;;;5096648;28;20019;-63
2023/07/25 11:13:38;;;;;;;5.38;1.50;;;23.20;90.50;;;;;;5093914;28;20137;-63
2023/07/25 11:16:05;;;;;;;2.90;1.50;;;23.20;88.70;;;;;;5076012;28;20062;-62
2023/07/25 11:18:37;;;;;;;4.20;1.52;;;23.20;88.20;;;;;;5090329;28;20080;-63
2023/07/25 11:21:08;;;;;;;4.15;1.45;;;23.20;86.50;;;;;;5088342;28;20061;-62
2023/07/25 11:23:34;;;;;;;2.22;1.25;;;23.20;82.50;;;;;;5077583;28;20032;-62
2023/07/25 11:26:02;;;;;;;3.30;1.17;;;23.10;83.60;;;;;;5095350;28;20074;-63
2023/07/25 11:28:29;;;;;;;4.65;1.38;;;23.10;86.10;;;;;;5095245;28;20051;-63
2023/07/25 11:30:55;;;;;;;3.28;1.40;;;23.20;87.70;;;;;;5095375;28;20036;-62
2023/07/25 11:33:22;;;;;;;2.72;1.20;;;23.20;86.50;;;;;;5078679;28;20082;-62
2023/07/25 11:35:55;;;;;;;3.97;1.60;;;23.20;87.40;;;;;;5092901;28;20046;-62
2023/07/25 11:38:21;;;;;;;5.50;2.30;;;23.10;85.70;;;;;;5096720;28;20050;-63
2023/07/25 11:40:53;;;;;;;3.63;1.23;;;23.10;87.60;;;;;;5093955;28;20038;-62
2023/07/25 11:43:19;;;;;;;4.80;1.23;;;23.00;86.80;;;;;;5096921;28;20100;-62
2023/07/25 11:45:46;;;;;;;2.95;1.20;;;23.00;85.70;;;;;;5091094;28;20744;-62
2023/07/25 11:48:17;;;;;;;5.28;1.33;;;22.90;83.20;;;;;;5092935;28;20067;-62
2023/07/25 11:50:48;;;;;;;3.53;1.45;;;22.80;84.20;;;;;;5093200;28;20529;-62
2023/07/25 11:53:19;;;;;;;6.20;1.38;;;22.80;83.70;;;;;;5094658;28;20039;-62
2023/07/25 11:55:46;;;;;;;3.15;1.25;;;22.90;81.50;;;;;;5095166;28;20027;-62
2023/07/25 11:58:17;;;;;;;2.47;1.10;;;22.90;83.10;;;;;;5095178;28;20105;-62
2023/07/25 12:00:43;;;;;;;3.08;1.23;;;22.90;83.00;;;;;;5092940;28;20028;-62
2023/07/25 12:03:22;;;;;;;2.78;1.17;;;23.00;83.10;;;;;;5095869;28;20551;-62
2023/07/25 12:05:59;;;;;;;1.88;1.00;;;23.20;85.40;;;;;;5090314;28;20218;-63
2023/07/25 12:08:37;;;;;;;2.92;1.40;;;23.30;80.50;;;;;;5094346;28;20039;-62
2023/07/25 12:11:14;;;;;;;4.13;0.98;;;23.40;82.90;;;;;;5092912;28;20142;-62
2023/07/25 12:13:48;;;;;;;3.17;1.33;;;23.40;80.50;;;;;;5094531;28;20052;-62
2023/07/25 12:16:44;;;;;;;3.63;1.00;;;23.30;81.10;;;;;;5095108;28;20040;-62
2023/07/25 12:19:13;;;;;;;1.23;0.77;;;23.30;80.40;;;;;;5069934;28;20579;-63
2023/07/25 12:21:42;;;;;;;4.22;1.25;;;23.20;74.80;;;;;;5093384;28;20293;-62
2023/07/25 12:24:09;;;;;;;1.63;1.00;;;23.10;76.90;;;;;;5077566;28;20040;-62
2023/07/25 12:26:51;;;;;;;3.58;1.10;;;23.10;77.60;;;;;;5092506;28;20036;-63
2023/07/25 12:29:21;;;;;;;2.53;1.00;;;23.10;76.50;;;;;;5095102;28;20117;-62
2023/07/25 12:31:47;;;;;;;1.75;1.05;;;23.10;75.20;;;;;;5094502;28;20039;-62
2023/07/25 12:34:18;;;;;;;2.80;1.00;;;23.00;75.20;;;;;;5094814;28;20526;-62
2023/07/25 12:36:45;;;;;;;3.90;0.82;;;23.00;75.30;;;;;;5093480;28;20074;-62
2023/07/25 12:39:11;;;;;;;2.08;0.90;;;23.10;75.10;;;;;;5095685;28;20127;-62
2023/07/25 12:41:38;;;;;;;3.00;1.45;;;23.10;76.00;;;;;;5092686;28;20151;-62
2023/07/25 12:44:04;;;;;;;4.85;0.95;;;23.20;77.30;;;;;;5096216;28;20047;-62
2023/07/25 12:46:29;;;;;;;2.08;0.82;;;23.20;76.90;;;;;;5091998;28;20024;-62